Time;durP1;ratioP1;P1;durP2;ratioP2;P2;SDS_P1;SDS_P2;PMS_P1;PMS_P2;Temp;Humidity;BMP_temperature;BMP_pressure;BME280_temperature;BME280_humidity;BME280_pressure;Samples;Min_cycle;Max_cycle;Signal;HPM_P1;HPM_P2
2023/08/13 00:02:30;;;;;;;12.70;7.93;;;21.10;99.90;;;;;;7583136;19;20017;-73
2023/08/13 00:05:04;;;;;;;12.52;6.82;;;21.10;99.90;;;;;;7577288;19;20015;-74
2023/08/13 00:07:37;;;;;;;14.98;7.63;;;21.30;99.90;;;;;;7580966;19;20502;-73
2023/08/13 00:10:10;;;;;;;19.23;8.63;;;21.30;99.90;;;;;;7586214;19;21070;-73
2023/08/13 00:12:43;;;;;;;14.07;8.27;;;21.30;99.90;;;;;;7579136;19;20033;-73
2023/08/13 00:15:15;;;;;;;10.07;7.45;;;21.40;99.90;;;;;;7572622;19;20018;-73
2023/08/13 00:17:48;;;;;;;9.57;6.60;;;21.30;99.90;;;;;;7578403;19;20015;-73
2023/08/13 00:20:20;;;;;;;12.52;7.38;;;21.30;99.90;;;;;;7586115;19;21254;-73
2023/08/13 00:22:52;;;;;;;11.85;6.85;;;21.20;99.90;;;;;;7580229;19;20496;-74
2023/08/13 00:25:25;;;;;;;9.13;7.22;;;21.10;99.90;;;;;;7581496;19;20047;-74
2023/08/13 00:27:57;;;;;;;9.45;7.40;;;21.10;99.90;;;;;;7586221;19;20639;-74
2023/08/13 00:30:29;;;;;;;15.82;7.95;;;21.00;99.90;;;;;;7579897;19;20086;-73
2023/08/13 00:33:01;;;;;;;15.82;7.43;;;21.00;99.90;;;;;;7582664;19;20029;-74
2023/08/13 00:35:34;;;;;;;10.65;7.68;;;21.10;99.90;;;;;;7578579;19;20026;-74
2023/08/13 00:38:06;;;;;;;13.88;7.18;;;21.00;99.90;;;;;;7583759;19;20051;-74
2023/08/13 00:40:39;;;;;;;14.63;7.60;;;21.10;99.90;;;;;;7581423;19;20484;-73
2023/08/13 00:43:11;;;;;;;10.52;7.25;;;21.10;99.90;;;;;;7585732;19;20022;-73
2023/08/13 00:45:44;;;;;;;14.02;7.68;;;21.10;99.90;;;;;;7578298;19;20043;-74
2023/08/13 00:48:17;;;;;;;12.23;7.75;;;21.00;99.90;;;;;;7584258;19;20021;-73
2023/08/13 00:50:50;;;;;;;13.43;7.70;;;21.00;99.90;;;;;;7577706;19;20022;-73
2023/08/13 00:53:23;;;;;;;9.00;7.50;;;21.00;99.90;;;;;;7585353;19;20972;-73
2023/08/13 00:55:56;;;;;;;10.80;6.95;;;21.00;99.90;;;;;;7582350;19;20022;-73
2023/08/13 00:58:28;;;;;;;;;;;21.00;99.90;;;;;;7585697;19;20955;-73
2023/08/13 01:01:01;;;;;;;14.95;7.63;;;20.90;99.90;;;;;;7588114;19;19918;-74
2023/08/13 01:03:36;;;;;;;10.98;8.02;;;20.90;99.90;;;;;;7580890;19;20531;-73
2023/08/13 01:06:16;;;;;;;9.75;7.38;;;20.90;99.90;;;;;;7579490;19;21037;-74
2023/08/13 01:09:10;;;;;;;9.85;7.32;;;20.90;99.90;;;;;;7587806;19;20022;-73
2023/08/13 01:11:51;;;;;;;;;;;20.80;99.90;;;;;;7587790;19;20023;-74
2023/08/13 01:14:35;;;;;;;9.93;7.40;;;20.70;99.90;;;;;;7589495;19;20419;-74
2023/08/13 01:17:09;;;;;;;12.38;7.47;;;20.70;99.90;;;;;;7593511;19;20010;-74
2023/08/13 01:19:41;;;;;;;12.55;7.93;;;20.70;99.90;;;;;;7582281;19;20026;-75
2023/08/13 01:22:14;;;;;;;9.70;7.55;;;20.70;99.90;;;;;;7593338;19;20094;-74
2023/08/13 01:24:46;;;;;;;17.33;8.67;;;20.70;99.90;;;;;;7590414;19;20018;-75
2023/08/13 01:27:37;;;;;;;9.38;7.53;;;20.70;99.90;;;;;;7589613;19;20022;-75
2023/08/13 01:30:46;;;;;;;11.45;7.60;;;20.60;99.90;;;;;;7585860;19;20026;-73
2023/08/13 01:33:27;;;;;;;10.70;7.95;;;20.50;99.90;;;;;;7592074;19;20026;-75
2023/08/13 01:36:02;;;;;;;12.40;8.43;;;20.40;99.90;;;;;;7589410;19;20015;-75
2023/08/13 01:38:35;;;;;;;9.80;7.88;;;20.30;99.90;;;;;;7585735;19;20019;-73
2023/08/13 01:41:08;;;;;;;14.77;8.05;;;20.30;99.90;;;;;;7594505;19;20014;-73
2023/08/13 01:43:40;;;;;;;13.05;7.88;;;20.40;99.90;;;;;;7585391;19;21056;-74
2023/08/13 01:46:13;;;;;;;11.95;7.80;;;20.30;99.90;;;;;;7586440;19;20059;-75
2023/08/13 01:48:45;;;;;;;12.15;7.80;;;20.40;99.90;;;;;;7584807;19;20007;-74
2023/08/13 01:51:17;;;;;;;13.13;8.25;;;20.30;99.90;;;;;;7588310;19;20111;-73
2023/08/13 01:53:49;;;;;;;17.15;8.05;;;20.30;99.90;;;;;;7585878;19;23578;-73
2023/08/13 01:56:21;;;;;;;13.55;7.95;;;20.20;99.90;;;;;;7590508;19;20989;-74
2023/08/13 01:58:53;;;;;;;11.85;7.97;;;20.20;99.90;;;;;;7585401;19;20022;-74
2023/08/13 02:01:26;;;;;;;13.13;8.85;;;20.20;99.90;;;;;;7587367;19;20257;-75
2023/08/13 02:03:59;;;;;;;10.80;7.75;;;20.20;99.90;;;;;;7587111;19;20058;-73
2023/08/13 02:06:33;;;;;;;11.98;7.45;;;20.10;99.90;;;;;;7577940;19;20022;-74
2023/08/13 02:09:05;;;;;;;9.68;7.57;;;20.00;99.90;;;;;;7590635;19;20018;-74
2023/08/13 02:11:37;;;;;;;15.13;8.27;;;20.00;99.90;;;;;;7583417;19;20019;-73
2023/08/13 02:14:10;;;;;;;12.00;7.80;;;19.90;99.90;;;;;;7587612;19;20133;-74
2023/08/13 02:16:42;;;;;;;12.95;7.88;;;19.90;99.90;;;;;;7583440;19;20018;-73
2023/08/13 02:19:14;;;;;;;12.65;8.45;;;19.80;99.90;;;;;;7588141;19;20030;-73
2023/08/13 02:21:48;;;;;;;11.63;7.72;;;19.80;99.90;;;;;;7586323;19;20841;-73
2023/08/13 02:24:20;;;;;;;16.33;8.30;;;19.90;99.90;;;;;;7590742;19;20030;-73
2023/08/13 02:26:53;;;;;;;11.88;7.90;;;19.90;99.90;;;;;;7586744;19;20022;-75
2023/08/13 02:29:25;;;;;;;15.70;7.85;;;19.80;99.90;;;;;;7587491;19;20022;-74
2023/08/13 02:31:58;;;;;;;13.77;8.10;;;19.80;99.90;;;;;;7583415;19;20101;-74
2023/08/13 02:34:41;;;;;;;15.00;8.15;;;19.90;99.90;;;;;;7578636;19;21052;-74
2023/08/13 02:37:14;;;;;;;13.10;8.48;;;19.90;99.90;;;;;;7588707;19;20015;-74
2023/08/13 02:39:46;;;;;;;11.77;8.07;;;20.00;99.90;;;;;;7590428;19;20779;-74
2023/08/13 02:42:20;;;;;;;9.40;7.07;;;20.00;99.90;;;;;;7588045;19;20094;-75
2023/08/13 02:44:53;;;;;;;9.77;7.30;;;20.00;99.90;;;;;;7586670;19;20913;-75
2023/08/13 02:47:25;;;;;;;10.98;7.55;;;20.00;99.90;;;;;;7589891;19;20025;-74
2023/08/13 02:49:57;;;;;;;9.70;7.43;;;19.90;99.90;;;;;;7585000;19;20007;-74
2023/08/13 02:52:30;;;;;;;16.23;8.35;;;19.80;99.90;;;;;;7590854;19;20054;-75
2023/08/13 02:55:02;;;;;;;11.18;7.88;;;19.80;99.90;;;;;;7586858;19;20924;-74
2023/08/13 02:57:35;;;;;;;11.65;8.18;;;19.80;99.90;;;;;;7585786;19;20018;-75
2023/08/13 03:00:18;;;;;;;14.68;7.85;;;19.80;99.90;;;;;;7586314;19;20014;-74
2023/08/13 03:02:50;;;;;;;12.88;8.23;;;19.90;99.90;;;;;;7584165;19;20018;-75
2023/08/13 03:05:22;;;;;;;13.82;8.40;;;19.90;99.90;;;;;;7588410;19;20085;-75
2023/08/13 03:07:54;;;;;;;13.75;8.45;;;19.90;99.90;;;;;;7587417;19;20014;-73
2023/08/13 03:10:27;;;;;;;14.32;8.50;;;19.90;99.90;;;;;;7590923;19;20018;-73
2023/08/13 03:12:59;;;;;;;11.23;8.88;;;19.90;99.90;;;;;;7592770;19;20022;-72
2023/08/13 03:15:31;;;;;;;15.10;9.25;;;19.90;99.90;;;;;;7583773;19;20010;-73
2023/08/13 03:18:05;;;;;;;18.30;9.03;;;19.90;99.90;;;;;;7587534;19;20102;-73
2023/08/13 03:20:40;;;;;;;15.75;10.20;;;19.90;99.90;;;;;;7581866;19;20018;-74
2023/08/13 03:23:13;;;;;;;14.98;10.68;;;19.80;99.90;;;;;;7589745;19;20022;-76
2023/08/13 03:25:47;;;;;;;19.90;10.88;;;19.80;99.90;;;;;;7584922;19;20015;-72
2023/08/13 03:28:20;;;;;;;14.87;10.50;;;19.70;99.90;;;;;;7586298;19;20019;-73
2023/08/13 03:31:02;;;;;;;19.55;10.38;;;19.60;99.90;;;;;;7579214;19;21922;-73
2023/08/13 03:33:55;;;;;;;13.60;9.05;;;19.60;99.90;;;;;;7582097;19;20022;-73
2023/08/13 03:36:28;;;;;;;11.55;8.77;;;19.60;99.90;;;;;;7587802;19;20042;-73
2023/08/13 03:39:00;;;;;;;12.88;9.32;;;19.60;99.90;;;;;;7588168;19;21137;-74
2023/08/13 03:41:33;;;;;;;13.95;11.07;;;19.60;99.90;;;;;;7590030;19;20050;-73
2023/08/13 03:44:05;;;;;;;15.40;11.55;;;19.50;99.90;;;;;;7585892;19;20029;-72
2023/08/13 03:46:38;;;;;;;20.50;10.80;;;19.40;99.90;;;;;;7590438;19;20891;-73
2023/08/13 03:49:11;;;;;;;15.38;10.45;;;19.30;99.90;;;;;;7584195;19;20018;-72
2023/08/13 03:51:43;;;;;;;12.43;9.88;;;19.20;99.90;;;;;;7583412;19;20106;-73
2023/08/13 03:54:16;;;;;;;13.63;9.90;;;19.30;99.90;;;;;;7586114;19;20019;-73
2023/08/13 03:56:48;;;;;;;14.23;10.93;;;19.30;99.90;;;;;;7585837;19;20587;-72
2023/08/13 03:59:21;;;;;;;13.05;10.80;;;19.20;99.90;;;;;;7589690;19;20948;-73
2023/08/13 04:01:57;;;;;;;15.98;10.75;;;19.30;99.90;;;;;;7585994;19;20022;-74
2023/08/13 04:04:29;;;;;;;16.73;10.45;;;19.30;99.90;;;;;;7588500;19;20022;-73
2023/08/13 04:07:03;;;;;;;16.25;10.93;;;19.20;99.90;;;;;;7582830;19;20022;-73
2023/08/13 04:09:35;;;;;;;14.45;10.15;;;19.20;99.90;;;;;;7585861;19;20055;-75
2023/08/13 04:12:08;;;;;;;13.50;10.05;;;19.00;99.90;;;;;;7584536;19;20022;-73
2023/08/13 04:14:40;;;;;;;15.05;10.75;;;19.10;99.90;;;;;;7585829;19;20025;-72
2023/08/13 04:17:13;;;;;;;18.70;10.23;;;19.00;99.90;;;;;;7586621;19;20074;-74
2023/08/13 04:19:45;;;;;;;13.52;9.55;;;19.10;99.90;;;;;;7587638;19;20019;-72
2023/08/13 04:22:18;;;;;;;14.23;9.68;;;19.00;99.90;;;;;;7589192;19;20040;-75
2023/08/13 04:24:53;;;;;;;13.48;9.23;;;19.00;99.90;;;;;;7579459;19;20056;-74
2023/08/13 04:27:28;;;;;;;16.02;10.52;;;19.00;99.90;;;;;;7588533;19;20040;-76
2023/08/13 04:30:01;;;;;;;12.15;10.02;;;18.90;99.90;;;;;;7584459;19;20034;-73
2023/08/13 04:32:37;;;;;;;12.43;9.75;;;18.90;99.90;;;;;;7587393;19;20022;-74
2023/08/13 04:35:10;;;;;;;14.90;9.68;;;18.90;99.90;;;;;;7585634;19;20041;-72
2023/08/13 04:37:43;;;;;;;14.77;9.82;;;18.90;99.90;;;;;;7583306;19;20021;-73
2023/08/13 04:40:17;;;;;;;13.27;10.05;;;18.90;99.90;;;;;;7585514;19;20018;-74
2023/08/13 04:42:49;;;;;;;16.92;10.55;;;18.90;99.90;;;;;;7592843;19;20018;-73
2023/08/13 04:45:21;;;;;;;15.77;9.57;;;18.80;99.90;;;;;;7596249;19;20011;-74
2023/08/13 04:47:54;;;;;;;14.83;10.10;;;18.90;99.90;;;;;;7592959;19;20626;-72
2023/08/13 04:50:26;;;;;;;16.90;9.68;;;18.90;99.90;;;;;;7593356;19;20019;-74
2023/08/13 04:52:59;;;;;;;12.93;9.93;;;18.90;99.90;;;;;;7586897;19;20018;-72
2023/08/13 04:55:31;;;;;;;17.50;10.23;;;19.10;99.90;;;;;;7591537;19;20017;-71
2023/08/13 04:58:04;;;;;;;16.38;10.50;;;19.20;99.90;;;;;;7592430;19;20096;-75
2023/08/13 05:00:37;;;;;;;10.82;8.88;;;19.30;99.90;;;;;;7592053;19;20447;-77
2023/08/13 05:03:09;;;;;;;14.57;9.80;;;19.30;99.90;;;;;;7594773;19;20029;-74
2023/08/13 05:05:42;;;;;;;14.32;8.82;;;19.30;99.90;;;;;;7582357;19;20025;-73
2023/08/13 05:08:14;;;;;;;11.90;8.93;;;19.30;99.90;;;;;;7592474;19;20025;-74
2023/08/13 05:10:47;;;;;;;11.75;8.80;;;19.20;99.90;;;;;;7592041;19;20129;-74
2023/08/13 05:13:19;;;;;;;17.65;9.45;;;19.20;99.90;;;;;;7596176;19;20015;-73
2023/08/13 05:15:51;;;;;;;17.33;9.10;;;19.20;99.90;;;;;;7589991;19;20504;-73
2023/08/13 05:18:24;;;;;;;14.18;9.48;;;19.20;99.90;;;;;;7594572;19;20037;-75
2023/08/13 05:20:56;;;;;;;12.10;9.38;;;19.30;99.90;;;;;;7590321;19;20025;-73
2023/08/13 05:23:29;;;;;;;11.93;9.20;;;19.30;99.90;;;;;;7598855;19;20025;-73
2023/08/13 05:26:01;;;;;;;11.32;8.52;;;19.30;99.90;;;;;;7594635;19;20014;-72
2023/08/13 05:28:36;;;;;;;11.05;9.35;;;19.40;99.90;;;;;;7593933;19;20023;-72
2023/08/13 05:31:09;;;;;;;11.40;9.33;;;19.50;99.90;;;;;;7591495;19;20023;-75
2023/08/13 05:33:42;;;;;;;10.82;8.60;;;19.50;99.90;;;;;;7593823;19;20019;-73
2023/08/13 05:36:14;;;;;;;11.75;8.57;;;19.60;99.90;;;;;;7585868;19;20058;-73
2023/08/13 05:38:47;;;;;;;11.82;8.65;;;19.70;99.90;;;;;;7594731;19;20018;-73
2023/08/13 05:41:19;;;;;;;10.43;8.55;;;19.80;99.90;;;;;;7591349;19;20563;-73
2023/08/13 05:43:53;;;;;;;9.55;8.23;;;19.80;99.90;;;;;;7588631;19;20022;-74
2023/08/13 05:46:25;;;;;;;11.45;8.23;;;19.90;99.90;;;;;;7593623;19;20021;-73
2023/08/13 05:48:59;;;;;;;14.88;8.50;;;19.90;99.90;;;;;;7594360;19;21248;-73
2023/08/13 05:51:32;;;;;;;11.82;8.40;;;20.10;99.90;;;;;;7593261;19;20014;-72
2023/08/13 05:54:04;;;;;;;9.95;8.05;;;20.20;99.90;;;;;;7591374;19;20018;-73
2023/08/13 05:56:37;;;;;;;13.27;9.30;;;20.30;99.90;;;;;;7600376;19;20018;-72
2023/08/13 05:59:09;;;;;;;15.77;8.63;;;20.40;99.90;;;;;;7589911;19;20018;-74
2023/08/13 06:01:42;;;;;;;12.13;8.77;;;20.50;99.90;;;;;;7589921;19;20021;-73
2023/08/13 06:04:14;;;;;;;10.60;7.75;;;20.60;99.90;;;;;;7588307;19;21105;-72
2023/08/13 06:06:48;;;;;;;10.80;8.10;;;20.60;99.90;;;;;;7595182;19;20018;-73
2023/08/13 06:09:20;;;;;;;12.32;8.60;;;20.80;99.90;;;;;;7599303;19;20054;-72
2023/08/13 06:11:52;;;;;;;10.70;7.57;;;20.90;99.90;;;;;;7594111;19;20745;-74
2023/08/13 06:14:25;;;;;;;10.65;7.57;;;21.00;99.90;;;;;;7592482;19;20026;-72
2023/08/13 06:16:57;;;;;;;12.45;7.57;;;21.00;99.90;;;;;;7597603;19;20398;-72
2023/08/13 06:19:45;;;;;;;13.65;8.10;;;21.10;99.90;;;;;;7592936;19;20010;-73
2023/08/13 06:22:19;;;;;;;13.10;7.00;;;21.20;99.90;;;;;;7592976;19;20491;-73
2023/08/13 06:24:51;;;;;;;11.35;7.03;;;21.30;99.90;;;;;;7592281;19;20019;-72
2023/08/13 06:27:23;;;;;;;7.40;6.60;;;21.30;99.90;;;;;;7593647;19;20263;-73
2023/08/13 06:29:56;;;;;;;10.02;7.00;;;21.50;99.90;;;;;;7592366;19;20014;-73
2023/08/13 06:32:40;;;;;;;6.88;5.80;;;21.60;99.90;;;;;;7590277;19;21353;-75
2023/08/13 06:35:15;;;;;;;7.50;5.93;;;21.70;99.90;;;;;;7439661;19;2960378;-73
2023/08/13 06:37:47;;;;;;;8.82;5.65;;;21.80;99.90;;;;;;7599978;19;20011;-74
2023/08/13 06:40:33;;;;;;;8.32;6.07;;;21.90;99.90;;;;;;7599105;19;20010;-75
2023/08/13 06:43:06;;;;;;;9.40;6.18;;;22.00;99.90;;;;;;7598777;19;20023;-74
2023/08/13 06:45:38;;;;;;;7.25;6.07;;;22.20;99.90;;;;;;7599744;19;21020;-74
2023/08/13 06:48:10;;;;;;;7.43;5.88;;;22.30;99.90;;;;;;7599920;19;20053;-74
2023/08/13 06:50:43;;;;;;;10.23;5.03;;;22.50;99.90;;;;;;7600649;19;20026;-74
2023/08/13 06:53:15;;;;;;;7.07;4.72;;;22.50;99.90;;;;;;7599536;19;20026;-74
2023/08/13 06:55:47;;;;;;;7.03;5.10;;;22.60;99.90;;;;;;7600906;19;20018;-74
2023/08/13 06:58:20;;;;;;;7.90;5.00;;;22.80;99.90;;;;;;7590613;19;20022;-74
2023/08/13 07:00:52;;;;;;;9.60;4.90;;;22.90;99.90;;;;;;7597379;19;20090;-74
2023/08/13 07:03:24;;;;;;;7.18;4.30;;;23.00;99.90;;;;;;7602730;19;20026;-74
2023/08/13 07:05:58;;;;;;;5.72;3.63;;;23.20;99.90;;;;;;7598793;19;20018;-73
2023/08/13 07:08:30;;;;;;;;;;;23.30;99.90;;;;;;7605851;19;20022;-76
2023/08/13 07:11:02;;;;;;;7.72;3.10;;;23.40;99.90;;;;;;7603596;19;19986;-73
2023/08/13 07:13:34;;;;;;;5.20;3.83;;;23.50;99.90;;;;;;7607032;19;20028;-74
2023/08/13 07:16:09;;;;;;;6.40;3.55;;;23.50;99.90;;;;;;7607081;19;20617;-73
2023/08/13 07:18:42;;;;;;;5.65;3.70;;;23.50;99.90;;;;;;7605187;19;20423;-75
2023/08/13 07:21:15;;;;;;;4.40;3.50;;;23.60;99.90;;;;;;7606084;19;20029;-76
2023/08/13 07:23:47;;;;;;;6.97;3.35;;;23.80;99.90;;;;;;7607866;19;20015;-74
2023/08/13 07:26:19;;;;;;;6.95;3.75;;;23.90;99.90;;;;;;7606088;19;20445;-75
2023/08/13 07:28:52;;;;;;;6.28;3.60;;;24.10;99.90;;;;;;7604375;19;20976;-76
2023/08/13 07:31:24;;;;;;;7.00;3.80;;;24.20;99.90;;;;;;7605842;19;20026;-74
2023/08/13 07:33:57;;;;;;;4.97;3.65;;;24.40;99.90;;;;;;7604688;19;20475;-74
2023/08/13 07:36:29;;;;;;;5.67;3.93;;;24.50;99.90;;;;;;7609309;19;20054;-74
2023/08/13 07:39:02;;;;;;;5.85;4.07;;;24.60;99.90;;;;;;7598489;19;20409;-75
2023/08/13 07:41:34;;;;;;;10.10;3.72;;;24.70;99.90;;;;;;7602536;19;20657;-76
2023/08/13 07:44:07;;;;;;;5.93;3.90;;;24.80;99.90;;;;;;7592469;19;20018;-76
2023/08/13 07:46:39;;;;;;;7.05;3.90;;;24.90;99.90;;;;;;7596558;19;20018;-74
2023/08/13 07:49:11;;;;;;;7.53;3.47;;;25.00;99.90;;;;;;7596171;19;20018;-74
2023/08/13 07:51:44;;;;;;;6.85;3.80;;;25.20;99.90;;;;;;7594150;19;20018;-75
2023/08/13 07:54:16;;;;;;;7.57;4.03;;;25.20;99.90;;;;;;7593506;19;20094;-76
2023/08/13 07:56:51;;;;;;;6.38;3.95;;;25.30;99.90;;;;;;7596708;19;20033;-74
2023/08/13 07:59:23;;;;;;;7.43;4.10;;;25.40;99.90;;;;;;7598724;19;20035;-75
2023/08/13 08:01:55;;;;;;;5.40;3.88;;;25.50;99.90;;;;;;7592110;19;20026;-74
2023/08/13 08:04:27;;;;;;;5.20;3.92;;;25.50;99.90;;;;;;7588237;19;20015;-76
2023/08/13 08:07:00;;;;;;;6.07;3.92;;;25.40;99.90;;;;;;7589481;19;20014;-74
2023/08/13 08:09:32;;;;;;;4.85;4.30;;;25.30;99.90;;;;;;7588288;19;20535;-75
2023/08/13 08:12:05;;;;;;;6.20;4.47;;;25.10;99.90;;;;;;7577432;19;20021;-72
2023/08/13 08:14:37;;;;;;;8.10;4.57;;;25.20;99.90;;;;;;7585102;19;20429;-73
2023/08/13 08:17:10;;;;;;;4.90;4.40;;;25.20;99.90;;;;;;7584326;19;20274;-73
2023/08/13 08:19:42;;;;;;;7.33;4.03;;;25.30;99.90;;;;;;7587819;19;20040;-73
2023/08/13 08:22:15;;;;;;;6.57;4.90;;;25.30;99.90;;;;;;7588264;19;20022;-74
2023/08/13 08:24:50;;;;;;;;;;;25.50;99.90;;;;;;7580870;19;20531;-75
2023/08/13 08:27:23;;;;;;;7.68;4.85;;;25.60;99.90;;;;;;7587036;19;19923;-74
2023/08/13 08:29:55;;;;;;;8.20;4.65;;;25.70;99.90;;;;;;7573620;19;21000;-73
2023/08/13 08:32:29;;;;;;;9.90;5.07;;;25.80;99.90;;;;;;7582658;19;20018;-74
2023/08/13 08:35:03;;;;;;;10.32;4.90;;;25.90;99.90;;;;;;7575449;19;20021;-75
2023/08/13 08:37:35;;;;;;;5.75;3.88;;;25.80;99.90;;;;;;7583890;19;20010;-74
2023/08/13 08:40:08;;;;;;;5.70;4.15;;;25.70;99.90;;;;;;7585760;19;20059;-74
2023/08/13 08:42:42;;;;;;;8.63;4.50;;;25.60;99.90;;;;;;7582769;19;20019;-74
2023/08/13 08:45:16;;;;;;;;;;;25.70;99.90;;;;;;7581615;19;20015;-73
2023/08/13 08:47:51;;;;;;;5.20;4.50;;;25.70;99.90;;;;;;7582139;19;19956;-74
2023/08/13 08:50:24;;;;;;;4.90;4.20;;;25.80;99.90;;;;;;7585855;19;20025;-73
2023/08/13 08:52:56;;;;;;;7.32;4.53;;;25.90;99.90;;;;;;7582171;19;20075;-73
2023/08/13 08:55:30;;;;;;;8.13;4.33;;;26.00;99.90;;;;;;7583715;19;20781;-74
2023/08/13 08:58:02;;;;;;;;;;;26.10;99.90;;;;;;7583520;19;20286;-74
2023/08/13 09:00:35;;;;;;;8.63;4.45;;;26.10;99.90;;;;;;7586327;19;19929;-73
2023/08/13 09:03:07;;;;;;;8.80;4.68;;;26.00;99.90;;;;;;7583530;19;20026;-74
2023/08/13 09:05:41;;;;;;;6.85;4.60;;;26.10;99.90;;;;;;7580125;19;20002;-73
2023/08/13 09:08:13;;;;;;;6.95;4.75;;;26.30;99.90;;;;;;7580454;19;20118;-73
2023/08/13 09:10:48;;;;;;;8.10;4.55;;;26.30;99.90;;;;;;7585800;19;20023;-73
2023/08/13 09:13:20;;;;;;;6.45;4.68;;;26.50;99.90;;;;;;7577739;19;20055;-73
2023/08/13 09:15:54;;;;;;;6.97;4.70;;;26.60;99.90;;;;;;7583766;19;20390;-74
2023/08/13 09:18:26;;;;;;;7.07;4.30;;;26.60;99.90;;;;;;7579088;19;20010;-73
2023/08/13 09:20:58;;;;;;;7.60;4.85;;;26.70;99.90;;;;;;7580840;19;20047;-73
2023/08/13 09:23:31;;;;;;;6.60;4.90;;;26.70;99.90;;;;;;7579626;19;20021;-73
2023/08/13 09:26:03;;;;;;;5.15;4.65;;;26.70;99.90;;;;;;7583551;19;20612;-73
2023/08/13 09:28:42;;;;;;;6.03;4.88;;;26.80;99.90;;;;;;7589806;19;20146;-73
2023/08/13 09:31:16;;;;;;;11.50;4.70;;;26.90;99.90;;;;;;7579727;19;20026;-73
2023/08/13 09:33:48;;;;;;;7.13;5.07;;;27.00;99.90;;;;;;7580928;19;20026;-74
2023/08/13 09:36:21;;;;;;;9.25;4.43;;;27.10;99.90;;;;;;7586296;19;20055;-74
2023/08/13 09:38:53;;;;;;;6.20;4.77;;;27.10;99.90;;;;;;7591684;19;20597;-72
2023/08/13 09:41:26;;;;;;;7.47;5.13;;;27.20;99.90;;;;;;7589694;19;20018;-73
2023/08/13 09:44:08;;;;;;;13.13;4.88;;;27.20;99.90;;;;;;7578279;19;20537;-74
2023/08/13 09:46:41;;;;;;;6.03;4.47;;;27.30;99.90;;;;;;7591452;19;20633;-74
2023/08/13 09:49:15;;;;;;;5.70;5.00;;;27.40;99.90;;;;;;7586567;19;20014;-73
2023/08/13 09:51:51;;;;;;;8.02;4.57;;;27.50;99.90;;;;;;7592146;19;20026;-75
2023/08/13 09:54:46;;;;;;;7.07;4.60;;;27.50;99.90;;;;;;7583750;19;20014;-73
2023/08/13 09:57:22;;;;;;;9.35;5.07;;;27.50;99.90;;;;;;7589374;19;20660;-74
2023/08/13 09:59:55;;;;;;;5.70;4.97;;;27.60;99.90;;;;;;7589887;19;20051;-74
2023/08/13 10:02:28;;;;;;;8.50;5.03;;;27.60;99.90;;;;;;7588949;19;20025;-73
2023/08/13 10:05:01;;;;;;;;;;;27.50;99.90;;;;;;7589963;19;20911;-75
2023/08/13 10:07:36;;;;;;;5.43;4.45;;;27.40;99.90;;;;;;7587902;19;19922;-73
2023/08/13 10:10:08;;;;;;;7.07;4.60;;;27.50;99.90;;;;;;7591779;19;20046;-75
2023/08/13 10:12:41;;;;;;;8.00;4.30;;;27.50;99.90;;;;;;7587171;19;20018;-73
2023/08/13 10:15:14;;;;;;;11.07;4.80;;;27.60;99.90;;;;;;7588192;19;20022;-72
2023/08/13 10:17:47;;;;;;;8.85;5.55;;;27.60;99.90;;;;;;7588635;19;20523;-74
2023/08/13 10:20:19;;;;;;;9.90;5.20;;;27.80;99.90;;;;;;7589572;19;20054;-73
2023/08/13 10:22:53;;;;;;;5.65;4.55;;;27.90;99.90;;;;;;7590065;19;20030;-72
2023/08/13 10:25:28;;;;;;;6.35;4.57;;;28.00;99.90;;;;;;7584706;19;20018;-72
2023/08/13 10:28:36;;;;;;;10.10;4.70;;;28.20;99.90;;;;;;7592364;19;20030;-73
2023/08/13 10:31:29;;;;;;;6.30;4.60;;;28.30;99.70;;;;;;7588563;19;21463;-73
2023/08/13 10:34:12;;;;;;;7.15;4.43;;;28.50;99.20;;;;;;7589781;19;20880;-74
2023/08/13 10:36:52;;;;;;;7.90;4.80;;;28.50;98.10;;;;;;7588176;19;20720;-72
2023/08/13 10:39:36;;;;;;;10.60;5.30;;;28.50;98.40;;;;;;7583731;19;20022;-72
2023/08/13 10:42:27;;;;;;;12.48;4.85;;;28.60;97.70;;;;;;7588878;19;20021;-73
2023/08/13 10:45:09;;;;;;;5.57;4.20;;;28.70;98.20;;;;;;7588898;19;20598;-73
2023/08/13 10:48:06;;;;;;;7.30;4.35;;;28.60;97.40;;;;;;7592296;19;20050;-74
2023/08/13 10:50:39;;;;;;;6.75;4.45;;;28.70;98.20;;;;;;7580520;19;21105;-74
2023/08/13 10:53:19;;;;;;;9.00;5.05;;;28.80;97.40;;;;;;7586820;19;20022;-72
2023/08/13 10:55:53;;;;;;;8.23;5.13;;;28.80;96.90;;;;;;7592770;19;20023;-72
2023/08/13 10:58:39;;;;;;;4.88;3.92;;;28.90;97.60;;;;;;7585981;19;20949;-73
2023/08/13 11:01:16;;;;;;;6.80;4.30;;;29.10;96.40;;;;;;7586993;19;20022;-73
2023/08/13 11:03:53;;;;;;;7.05;4.50;;;29.30;96.20;;;;;;7588582;19;20296;-72
2023/08/13 11:06:28;;;;;;;5.72;4.47;;;29.40;96.00;;;;;;7583511;19;20370;-75
2023/08/13 11:09:00;;;;;;;5.82;4.78;;;29.30;95.40;;;;;;7584434;19;20914;-73
2023/08/13 11:15:32;;;;;;;7.53;4.53;;;29.90;94.60;;;;;;7552208;19;20630;-73
2023/08/13 11:18:05;;;;;;;6.53;4.10;;;30.40;94.30;;;;;;7563600;19;20436;-74
2023/08/13 11:20:37;;;;;;;6.03;4.22;;;30.60;93.80;;;;;;7555457;19;20018;-74
2023/08/13 11:23:11;;;;;;;5.53;4.23;;;30.90;93.10;;;;;;7568449;19;20010;-72
2023/08/13 11:25:48;;;;;;;6.38;4.35;;;31.30;92.90;;;;;;7561057;19;20025;-74
2023/08/13 11:28:25;;;;;;;6.57;4.00;;;31.60;92.20;;;;;;7567268;19;20022;-73
2023/08/13 11:30:58;;;;;;;5.50;4.18;;;31.90;92.50;;;;;;7564265;19;20033;-73
2023/08/13 11:33:30;;;;;;;6.18;4.07;;;32.10;88.20;;;;;;7555531;19;20051;-74
2023/08/13 11:36:03;;;;;;;6.75;4.15;;;32.20;87.10;;;;;;7576803;19;20018;-74
2023/08/13 11:38:35;;;;;;;6.30;4.20;;;32.30;88.10;;;;;;7563480;19;20017;-73
2023/08/13 11:41:14;;;;;;;7.88;4.63;;;32.50;87.10;;;;;;7580322;19;20089;-73
2023/08/13 11:43:54;;;;;;;6.88;3.95;;;32.60;87.70;;;;;;7568132;19;20022;-74
2023/08/13 11:46:26;;;;;;;7.88;4.38;;;32.70;84.20;;;;;;7587259;19;20014;-74
2023/08/13 11:49:01;;;;;;;4.82;4.25;;;33.00;84.40;;;;;;7570736;19;22478;-73
2023/08/13 11:51:41;;;;;;;6.80;4.38;;;33.20;85.10;;;;;;7561815;19;20026;-75
2023/08/13 11:54:13;;;;;;;7.10;4.50;;;33.30;81.40;;;;;;7578954;19;20032;-75
2023/08/13 11:56:50;;;;;;;8.00;4.30;;;33.40;80.00;;;;;;7580364;19;20033;-73
2023/08/13 11:59:26;;;;;;;7.80;4.53;;;33.40;79.90;;;;;;7577008;19;20026;-73
2023/08/13 12:02:00;;;;;;;8.02;4.97;;;33.60;79.30;;;;;;7571476;19;20804;-73
2023/08/13 12:04:33;;;;;;;5.85;4.35;;;33.80;80.00;;;;;;7557943;19;20022;-74
2023/08/13 12:07:09;;;;;;;7.72;5.90;;;33.80;78.70;;;;;;7584477;19;21049;-72
2023/08/13 12:09:41;;;;;;;;;;;33.90;77.90;;;;;;7566857;19;20322;-73
2023/08/13 12:12:14;;;;;;;8.30;4.55;;;34.10;77.70;;;;;;7573429;19;19926;-73
2023/08/13 12:14:46;;;;;;;17.42;11.43;;;34.40;77.40;;;;;;7579339;19;20025;-73
2023/08/13 12:17:18;;;;;;;51.00;35.65;;;34.40;77.90;;;;;;7593341;19;20819;-72
2023/08/13 12:19:51;;;;;;;;;;;34.50;78.20;;;;;;7568420;19;20051;-73
2023/08/13 12:22:23;;;;;;;20.30;13.75;;;34.50;78.40;;;;;;7571634;19;19923;-74
2023/08/13 12:24:56;;;;;;;6.53;4.63;;;34.40;78.30;;;;;;7560365;19;20448;-73
2023/08/13 12:27:28;;;;;;;13.32;11.07;;;34.60;78.80;;;;;;7563387;19;20037;-73
2023/08/13 12:30:01;;;;;;;19.45;16.33;;;34.50;81.20;;;;;;7578524;19;21132;-74
2023/08/13 12:32:34;;;;;;;15.50;10.57;;;34.40;79.90;;;;;;7578137;19;20018;-73
2023/08/13 12:35:10;;;;;;;6.65;4.80;;;34.50;81.10;;;;;;7567099;19;20011;-73
2023/08/13 12:37:42;;;;;;;8.18;6.90;;;34.50;79.00;;;;;;7581772;19;20017;-74
2023/08/13 12:40:15;;;;;;;5.32;4.82;;;34.70;79.40;;;;;;7581337;19;20948;-73
2023/08/13 12:42:48;;;;;;;20.52;5.13;;;34.60;78.60;;;;;;7568825;19;20094;-73
2023/08/13 12:45:20;;;;;;;9.93;4.78;;;34.70;78.70;;;;;;7590184;19;20014;-74
2023/08/13 12:47:52;;;;;;;9.82;4.57;;;34.80;79.20;;;;;;7587351;19;20679;-73
2023/08/13 12:50:25;;;;;;;7.72;5.22;;;34.90;79.90;;;;;;7554142;19;20879;-73
2023/08/13 12:53:00;;;;;;;8.27;4.75;;;34.90;77.50;;;;;;7570710;19;20030;-74
2023/08/13 12:55:33;;;;;;;8.35;4.90;;;35.00;77.20;;;;;;7574001;19;20678;-73
2023/08/13 12:58:05;;;;;;;6.70;4.50;;;34.80;76.40;;;;;;7559752;19;20007;-73
2023/08/13 13:00:38;;;;;;;7.93;5.07;;;34.70;76.60;;;;;;7578851;19;20019;-73
2023/08/13 13:03:10;;;;;;;7.07;4.50;;;35.00;76.20;;;;;;7554617;19;20099;-74
2023/08/13 13:05:42;;;;;;;5.50;4.35;;;35.30;77.50;;;;;;7578248;19;20573;-73
2023/08/13 13:08:14;;;;;;;8.73;4.68;;;35.30;75.50;;;;;;7592164;19;20033;-75
2023/08/13 13:10:47;;;;;;;6.53;4.97;;;35.30;75.50;;;;;;7561023;19;20895;-73
2023/08/13 13:13:19;;;;;;;5.18;4.50;;;35.60;76.30;;;;;;7547374;19;20059;-73
2023/08/13 13:15:52;;;;;;;6.70;4.47;;;35.70;75.20;;;;;;7583959;19;20026;-74
2023/08/13 13:18:24;;;;;;;7.07;4.93;;;36.10;73.50;;;;;;7596509;19;20018;-72
2023/08/13 13:20:57;;;;;;;7.00;5.13;;;36.00;73.60;;;;;;7600677;19;20010;-73
2023/08/13 13:23:29;;;;;;;5.68;4.55;;;35.70;72.90;;;;;;7593702;19;20046;-74